sensor_id;sensor_type;location;lat;lon;timestamp;P1;durP1;ratioP1;P2;durP2;ratioP2
19388;SDS011;9830;41.876;23.474;2023-03-14T00:01:29;0.13;;;0.13;;
19388;SDS011;9830;41.876;23.474;2023-03-14T00:03:55;0.00;;;0.00;;
19388;SDS011;9830;41.876;23.474;2023-03-14T00:06:20;0.20;;;0.17;;
19388;SDS011;9830;41.876;23.474;2023-03-14T00:08:47;0.63;;;0.63;;
19388;SDS011;9830;41.876;23.474;2023-03-14T00:11:14;0.53;;;0.43;;
19388;SDS011;9830;41.876;23.474;2023-03-14T00:13:41;0.00;;;0.00;;
19388;SDS011;9830;41.876;23.474;2023-03-14T00:16:08;0.20;;;0.20;;
19388;SDS011;9830;41.876;23.474;2023-03-14T00:18:36;0.00;;;0.00;;
19388;SDS011;9830;41.876;23.474;2023-03-14T00:21:02;0.10;;;0.10;;
19388;SDS011;9830;41.876;23.474;2023-03-14T00:23:29;0.00;;;0.00;;
19388;SDS011;9830;41.876;23.474;2023-03-14T00:26:00;0.60;;;0.60;;
19388;SDS011;9830;41.876;23.474;2023-03-14T00:28:28;0.20;;;0.20;;
19388;SDS011;9830;41.876;23.474;2023-03-14T00:30:54;1.37;;;1.17;;
19388;SDS011;9830;41.876;23.474;2023-03-14T00:33:19;4.33;;;0.43;;
19388;SDS011;9830;41.876;23.474;2023-03-14T00:35:52;0.10;;;0.10;;
19388;SDS011;9830;41.876;23.474;2023-03-14T00:38:19;0.53;;;0.53;;
19388;SDS011;9830;41.876;23.474;2023-03-14T00:40:44;0.33;;;0.33;;
19388;SDS011;9830;41.876;23.474;2023-03-14T00:43:10;0.00;;;0.00;;
19388;SDS011;9830;41.876;23.474;2023-03-14T00:45:36;1.40;;;0.83;;
19388;SDS011;9830;41.876;23.474;2023-03-14T00:48:01;0.00;;;0.00;;
19388;SDS011;9830;41.876;23.474;2023-03-14T00:50:27;1.80;;;1.37;;
19388;SDS011;9830;41.876;23.474;2023-03-14T00:52:53;0.20;;;0.20;;
19388;SDS011;9830;41.876;23.474;2023-03-14T00:55:18;2.27;;;1.03;;
19388;SDS011;9830;41.876;23.474;2023-03-14T00:57:45;0.07;;;0.07;;
19388;SDS011;9830;41.876;23.474;2023-03-14T01:00:11;2.97;;;0.87;;
19388;SDS011;9830;41.876;23.474;2023-03-14T01:02:38;0.27;;;0.27;;
19388;SDS011;9830;41.876;23.474;2023-03-14T01:05:03;1.37;;;1.27;;
19388;SDS011;9830;41.876;23.474;2023-03-14T01:07:29;1.70;;;1.17;;
19388;SDS011;9830;41.876;23.474;2023-03-14T01:09:55;0.10;;;0.10;;
19388;SDS011;9830;41.876;23.474;2023-03-14T01:12:20;1.00;;;0.90;;
19388;SDS011;9830;41.876;23.474;2023-03-14T01:14:46;0.47;;;0.47;;
19388;SDS011;9830;41.876;23.474;2023-03-14T01:17:12;1.13;;;1.13;;
19388;SDS011;9830;41.876;23.474;2023-03-14T01:19:37;0.10;;;0.10;;
19388;SDS011;9830;41.876;23.474;2023-03-14T01:22:03;2.43;;;0.63;;
19388;SDS011;9830;41.876;23.474;2023-03-14T01:24:29;0.07;;;0.07;;
19388;SDS011;9830;41.876;23.474;2023-03-14T01:26:55;1.20;;;0.97;;
19388;SDS011;9830;41.876;23.474;2023-03-14T01:29:20;1.33;;;1.10;;
19388;SDS011;9830;41.876;23.474;2023-03-14T01:31:46;0.00;;;0.00;;
19388;SDS011;9830;41.876;23.474;2023-03-14T01:34:12;2.37;;;1.40;;
19388;SDS011;9830;41.876;23.474;2023-03-14T01:36:37;0.10;;;0.10;;
19388;SDS011;9830;41.876;23.474;2023-03-14T01:39:03;0.07;;;0.07;;
19388;SDS011;9830;41.876;23.474;2023-03-14T01:41:31;0.10;;;0.10;;
19388;SDS011;9830;41.876;23.474;2023-03-14T01:43:57;0.00;;;0.00;;
19388;SDS011;9830;41.876;23.474;2023-03-14T01:56:44;0.03;;;0.03;;
19388;SDS011;9830;41.876;23.474;2023-03-14T01:59:15;0.00;;;0.00;;
19388;SDS011;9830;41.876;23.474;2023-03-14T02:01:41;0.10;;;0.10;;
19388;SDS011;9830;41.876;23.474;2023-03-14T02:04:10;0.30;;;0.30;;
19388;SDS011;9830;41.876;23.474;2023-03-14T02:06:42;0.33;;;0.33;;
19388;SDS011;9830;41.876;23.474;2023-03-14T02:09:15;0.00;;;0.00;;
19388;SDS011;9830;41.876;23.474;2023-03-14T02:11:41;1.43;;;0.63;;
19388;SDS011;9830;41.876;23.474;2023-03-14T02:14:08;4.17;;;1.27;;
19388;SDS011;9830;41.876;23.474;2023-03-14T02:16:43;2.23;;;0.83;;
19388;SDS011;9830;41.876;23.474;2023-03-14T02:19:09;1.33;;;1.20;;
19388;SDS011;9830;41.876;23.474;2023-03-14T02:24:50;0.67;;;0.57;;
19388;SDS011;9830;41.876;23.474;2023-03-14T02:27:33;3.73;;;1.23;;
19388;SDS011;9830;41.876;23.474;2023-03-14T02:30:01;0.27;;;0.27;;
19388;SDS011;9830;41.876;23.474;2023-03-14T02:32:33;0.30;;;0.30;;
19388;SDS011;9830;41.876;23.474;2023-03-14T02:35:03;0.00;;;0.00;;
19388;SDS011;9830;41.876;23.474;2023-03-14T02:37:38;0.20;;;0.20;;
19388;SDS011;9830;41.876;23.474;2023-03-14T02:40:08;1.60;;;1.10;;
19388;SDS011;9830;41.876;23.474;2023-03-14T02:42:35;0.27;;;0.27;;
19388;SDS011;9830;41.876;23.474;2023-03-14T02:47:54;0.57;;;0.57;;
19388;SDS011;9830;41.876;23.474;2023-03-14T02:50:25;7.13;;;0.67;;
19388;SDS011;9830;41.876;23.474;2023-03-14T02:52:54;0.67;;;0.67;;
19388;SDS011;9830;41.876;23.474;2023-03-14T02:55:23;1.47;;;1.03;;
19388;SDS011;9830;41.876;23.474;2023-03-14T02:57:51;0.47;;;0.47;;
19388;SDS011;9830;41.876;23.474;2023-03-14T03:00:17;1.93;;;1.40;;
19388;SDS011;9830;41.876;23.474;2023-03-14T03:02:44;1.50;;;0.53;;
19388;SDS011;9830;41.876;23.474;2023-03-14T03:05:10;2.00;;;0.83;;
19388;SDS011;9830;41.876;23.474;2023-03-14T03:07:36;0.30;;;0.30;;
19388;SDS011;9830;41.876;23.474;2023-03-14T03:10:02;0.47;;;0.47;;
19388;SDS011;9830;41.876;23.474;2023-03-14T03:12:28;3.20;;;1.13;;
19388;SDS011;9830;41.876;23.474;2023-03-14T03:14:53;0.30;;;0.30;;
19388;SDS011;9830;41.876;23.474;2023-03-14T03:17:19;0.00;;;0.00;;
19388;SDS011;9830;41.876;23.474;2023-03-14T03:19:45;1.00;;;0.73;;
19388;SDS011;9830;41.876;23.474;2023-03-14T03:22:10;0.17;;;0.17;;
19388;SDS011;9830;41.876;23.474;2023-03-14T03:24:36;0.10;;;0.10;;
19388;SDS011;9830;41.876;23.474;2023-03-14T03:27:02;4.43;;;1.10;;
19388;SDS011;9830;41.876;23.474;2023-03-14T03:29:27;0.03;;;0.03;;
19388;SDS011;9830;41.876;23.474;2023-03-14T03:31:53;0.53;;;0.53;;
19388;SDS011;9830;41.876;23.474;2023-03-14T03:34:19;1.70;;;1.17;;
19388;SDS011;9830;41.876;23.474;2023-03-14T03:36:44;0.63;;;0.33;;
19388;SDS011;9830;41.876;23.474;2023-03-14T03:39:10;0.10;;;0.10;;
19388;SDS011;9830;41.876;23.474;2023-03-14T03:41:36;0.00;;;0.00;;
19388;SDS011;9830;41.876;23.474;2023-03-14T03:44:01;0.00;;;0.00;;
19388;SDS011;9830;41.876;23.474;2023-03-14T03:46:27;0.83;;;0.83;;
19388;SDS011;9830;41.876;23.474;2023-03-14T03:48:56;1.70;;;0.90;;
19388;SDS011;9830;41.876;23.474;2023-03-14T03:51:23;0.20;;;0.20;;
19388;SDS011;9830;41.876;23.474;2023-03-14T03:53:49;0.87;;;0.87;;
19388;SDS011;9830;41.876;23.474;2023-03-14T03:56:15;0.10;;;0.10;;
19388;SDS011;9830;41.876;23.474;2023-03-14T03:58:41;0.53;;;0.30;;
19388;SDS011;9830;41.876;23.474;2023-03-14T04:01:07;0.20;;;0.20;;
19388;SDS011;9830;41.876;23.474;2023-03-14T04:03:34;0.33;;;0.33;;
19388;SDS011;9830;41.876;23.474;2023-03-14T04:06:04;0.07;;;0.07;;
19388;SDS011;9830;41.876;23.474;2023-03-14T04:08:31;0.00;;;0.00;;
19388;SDS011;9830;41.876;23.474;2023-03-14T04:10:57;0.03;;;0.03;;
19388;SDS011;9830;41.876;23.474;2023-03-14T04:13:24;0.10;;;0.10;;
19388;SDS011;9830;41.876;23.474;2023-03-14T04:15:51;0.77;;;0.77;;
19388;SDS011;9830;41.876;23.474;2023-03-14T04:18:17;0.40;;;0.40;;
19388;SDS011;9830;41.876;23.474;2023-03-14T04:20:43;0.73;;;0.73;;
19388;SDS011;9830;41.876;23.474;2023-03-14T04:23:08;0.13;;;0.13;;
19388;SDS011;9830;41.876;23.474;2023-03-14T04:25:34;0.60;;;0.50;;
19388;SDS011;9830;41.876;23.474;2023-03-14T04:28:00;0.20;;;0.20;;
19388;SDS011;9830;41.876;23.474;2023-03-14T04:30:26;0.00;;;0.00;;
19388;SDS011;9830;41.876;23.474;2023-03-14T04:32:52;0.00;;;0.00;;
19388;SDS011;9830;41.876;23.474;2023-03-14T04:35:18;0.17;;;0.17;;
19388;SDS011;9830;41.876;23.474;2023-03-14T04:37:43;0.10;;;0.10;;
19388;SDS011;9830;41.876;23.474;2023-03-14T04:40:10;0.03;;;0.03;;
19388;SDS011;9830;41.876;23.474;2023-03-14T04:45:58;0.17;;;0.17;;
19388;SDS011;9830;41.876;23.474;2023-03-14T04:48:24;0.50;;;0.40;;
19388;SDS011;9830;41.876;23.474;2023-03-14T04:50:51;0.50;;;0.40;;
19388;SDS011;9830;41.876;23.474;2023-03-14T04:53:17;0.00;;;0.00;;
19388;SDS011;9830;41.876;23.474;2023-03-14T04:55:50;0.30;;;0.30;;
19388;SDS011;9830;41.876;23.474;2023-03-14T04:58:17;0.20;;;0.20;;
19388;SDS011;9830;41.876;23.474;2023-03-14T05:00:43;0.40;;;0.40;;
19388;SDS011;9830;41.876;23.474;2023-03-14T05:03:09;1.10;;;1.10;;
19388;SDS011;9830;41.876;23.474;2023-03-14T05:05:35;0.53;;;0.47;;
19388;SDS011;9830;41.876;23.474;2023-03-14T05:08:01;0.33;;;0.33;;
19388;SDS011;9830;41.876;23.474;2023-03-14T05:10:27;1.67;;;1.40;;
19388;SDS011;9830;41.876;23.474;2023-03-14T05:12:52;0.67;;;0.67;;
19388;SDS011;9830;41.876;23.474;2023-03-14T05:15:18;0.77;;;0.27;;
19388;SDS011;9830;41.876;23.474;2023-03-14T05:17:43;0.40;;;0.40;;
19388;SDS011;9830;41.876;23.474;2023-03-14T05:20:10;0.30;;;0.30;;
19388;SDS011;9830;41.876;23.474;2023-03-14T05:22:39;0.10;;;0.10;;
19388;SDS011;9830;41.876;23.474;2023-03-14T05:25:05;0.33;;;0.33;;
19388;SDS011;9830;41.876;23.474;2023-03-14T05:27:31;2.63;;;0.93;;
19388;SDS011;9830;41.876;23.474;2023-03-14T05:29:58;1.63;;;1.50;;
19388;SDS011;9830;41.876;23.474;2023-03-14T05:32:23;5.93;;;1.30;;
19388;SDS011;9830;41.876;23.474;2023-03-14T05:34:49;3.20;;;2.20;;
19388;SDS011;9830;41.876;23.474;2023-03-14T05:37:15;3.10;;;1.23;;
19388;SDS011;9830;41.876;23.474;2023-03-14T05:39:40;5.50;;;1.70;;
19388;SDS011;9830;41.876;23.474;2023-03-14T05:42:06;0.43;;;0.43;;
19388;SDS011;9830;41.876;23.474;2023-03-14T05:44:32;2.50;;;1.60;;
19388;SDS011;9830;41.876;23.474;2023-03-14T05:46:58;3.63;;;0.97;;
19388;SDS011;9830;41.876;23.474;2023-03-14T05:49:23;4.03;;;1.60;;
19388;SDS011;9830;41.876;23.474;2023-03-14T05:51:50;2.47;;;1.30;;
19388;SDS011;9830;41.876;23.474;2023-03-14T05:54:16;1.10;;;1.07;;
19388;SDS011;9830;41.876;23.474;2023-03-14T05:56:42;5.70;;;1.63;;
19388;SDS011;9830;41.876;23.474;2023-03-14T05:59:07;6.43;;;2.23;;
19388;SDS011;9830;41.876;23.474;2023-03-14T06:01:34;0.70;;;0.70;;
19388;SDS011;9830;41.876;23.474;2023-03-14T06:04:00;0.97;;;0.73;;
19388;SDS011;9830;41.876;23.474;2023-03-14T06:06:25;3.63;;;2.97;;
19388;SDS011;9830;41.876;23.474;2023-03-14T06:08:51;2.33;;;2.07;;
19388;SDS011;9830;41.876;23.474;2023-03-14T06:11:17;4.30;;;3.27;;
19388;SDS011;9830;41.876;23.474;2023-03-14T06:13:42;5.97;;;5.13;;
19388;SDS011;9830;41.876;23.474;2023-03-14T06:16:08;8.23;;;6.97;;
19388;SDS011;9830;41.876;23.474;2023-03-14T06:18:34;8.80;;;3.13;;
19388;SDS011;9830;41.876;23.474;2023-03-14T06:20:59;1.83;;;1.67;;
19388;SDS011;9830;41.876;23.474;2023-03-14T06:23:25;1.60;;;1.50;;
19388;SDS011;9830;41.876;23.474;2023-03-14T06:25:51;5.87;;;3.63;;
19388;SDS011;9830;41.876;23.474;2023-03-14T06:28:17;4.23;;;2.53;;
19388;SDS011;9830;41.876;23.474;2023-03-14T06:30:43;8.43;;;5.27;;
19388;SDS011;9830;41.876;23.474;2023-03-14T06:33:09;13.23;;;5.77;;
19388;SDS011;9830;41.876;23.474;2023-03-14T06:35:35;4.83;;;3.77;;
19388;SDS011;9830;41.876;23.474;2023-03-14T06:38:00;9.37;;;4.03;;
19388;SDS011;9830;41.876;23.474;2023-03-14T06:40:26;4.60;;;4.07;;
19388;SDS011;9830;41.876;23.474;2023-03-14T06:42:52;4.43;;;4.03;;
19388;SDS011;9830;41.876;23.474;2023-03-14T06:45:17;3.77;;;3.27;;
19388;SDS011;9830;41.876;23.474;2023-03-14T06:47:43;5.80;;;2.67;;
19388;SDS011;9830;41.876;23.474;2023-03-14T06:50:10;2.50;;;2.30;;
19388;SDS011;9830;41.876;23.474;2023-03-14T06:52:35;2.77;;;2.57;;
19388;SDS011;9830;41.876;23.474;2023-03-14T06:55:02;3.70;;;2.90;;
19388;SDS011;9830;41.876;23.474;2023-03-14T06:57:28;5.83;;;2.37;;
19388;SDS011;9830;41.876;23.474;2023-03-14T06:59:54;4.13;;;2.63;;
19388;SDS011;9830;41.876;23.474;2023-03-14T07:02:19;6.07;;;3.13;;
19388;SDS011;9830;41.876;23.474;2023-03-14T07:04:46;3.10;;;2.40;;
19388;SDS011;9830;41.876;23.474;2023-03-14T07:07:12;1.63;;;1.53;;
19388;SDS011;9830;41.876;23.474;2023-03-14T07:09:38;1.57;;;1.50;;
19388;SDS011;9830;41.876;23.474;2023-03-14T07:12:03;5.27;;;3.23;;
19388;SDS011;9830;41.876;23.474;2023-03-14T07:14:30;5.33;;;2.03;;
19388;SDS011;9830;41.876;23.474;2023-03-14T07:16:55;6.23;;;3.53;;
19388;SDS011;9830;41.876;23.474;2023-03-14T07:19:21;2.43;;;2.07;;
19388;SDS011;9830;41.876;23.474;2023-03-14T07:21:47;12.33;;;4.87;;
19388;SDS011;9830;41.876;23.474;2023-03-14T07:24:12;2.67;;;2.47;;
19388;SDS011;9830;41.876;23.474;2023-03-14T07:26:38;6.53;;;3.87;;
19388;SDS011;9830;41.876;23.474;2023-03-14T07:29:04;2.97;;;2.50;;
19388;SDS011;9830;41.876;23.474;2023-03-14T07:31:29;3.87;;;2.27;;
19388;SDS011;9830;41.876;23.474;2023-03-14T07:33:55;2.03;;;1.93;;
19388;SDS011;9830;41.876;23.474;2023-03-14T07:36:23;1.73;;;1.63;;
19388;SDS011;9830;41.876;23.474;2023-03-14T07:38:48;2.67;;;2.57;;
19388;SDS011;9830;41.876;23.474;2023-03-14T07:41:14;0.70;;;0.70;;
19388;SDS011;9830;41.876;23.474;2023-03-14T07:43:40;1.10;;;1.10;;
19388;SDS011;9830;41.876;23.474;2023-03-14T07:46:06;8.00;;;1.93;;
19388;SDS011;9830;41.876;23.474;2023-03-14T07:48:32;1.60;;;1.50;;
19388;SDS011;9830;41.876;23.474;2023-03-14T07:50:58;2.30;;;1.63;;
19388;SDS011;9830;41.876;23.474;2023-03-14T07:53:23;1.83;;;1.57;;
19388;SDS011;9830;41.876;23.474;2023-03-14T07:55:50;1.10;;;1.10;;
19388;SDS011;9830;41.876;23.474;2023-03-14T07:58:17;1.97;;;1.87;;
19388;SDS011;9830;41.876;23.474;2023-03-14T08:00:43;0.97;;;0.97;;
19388;SDS011;9830;41.876;23.474;2023-03-14T08:03:09;1.43;;;1.43;;
19388;SDS011;9830;41.876;23.474;2023-03-14T08:05:35;1.93;;;1.73;;
19388;SDS011;9830;41.876;23.474;2023-03-14T08:08:02;0.57;;;0.57;;
19388;SDS011;9830;41.876;23.474;2023-03-14T08:10:29;0.73;;;0.73;;
19388;SDS011;9830;41.876;23.474;2023-03-14T08:12:55;1.93;;;1.47;;
19388;SDS011;9830;41.876;23.474;2023-03-14T08:15:22;1.17;;;0.93;;
19388;SDS011;9830;41.876;23.474;2023-03-14T08:17:49;1.27;;;1.23;;
19388;SDS011;9830;41.876;23.474;2023-03-14T08:20:20;1.73;;;1.63;;
19388;SDS011;9830;41.876;23.474;2023-03-14T08:22:46;1.60;;;1.20;;
19388;SDS011;9830;41.876;23.474;2023-03-14T08:25:12;1.47;;;1.37;;
19388;SDS011;9830;41.876;23.474;2023-03-14T08:27:38;1.20;;;1.17;;
19388;SDS011;9830;41.876;23.474;2023-03-14T08:30:06;1.47;;;1.37;;
19388;SDS011;9830;41.876;23.474;2023-03-14T08:32:36;1.73;;;1.63;;
19388;SDS011;9830;41.876;23.474;2023-03-14T08:35:02;1.60;;;1.50;;
19388;SDS011;9830;41.876;23.474;2023-03-14T08:37:30;1.20;;;1.00;;
19388;SDS011;9830;41.876;23.474;2023-03-14T08:39:57;1.23;;;1.13;;
19388;SDS011;9830;41.876;23.474;2023-03-14T08:42:22;0.97;;;0.97;;
19388;SDS011;9830;41.876;23.474;2023-03-14T08:44:48;1.00;;;1.00;;
19388;SDS011;9830;41.876;23.474;2023-03-14T08:47:15;1.20;;;1.10;;
19388;SDS011;9830;41.876;23.474;2023-03-14T08:49:41;1.20;;;1.17;;
19388;SDS011;9830;41.876;23.474;2023-03-14T08:52:06;19.30;;;2.00;;
19388;SDS011;9830;41.876;23.474;2023-03-14T08:54:32;1.67;;;1.57;;
19388;SDS011;9830;41.876;23.474;2023-03-14T08:56:58;0.77;;;0.77;;
19388;SDS011;9830;41.876;23.474;2023-03-14T08:59:23;2.73;;;1.20;;
19388;SDS011;9830;41.876;23.474;2023-03-14T09:01:49;0.93;;;0.93;;
19388;SDS011;9830;41.876;23.474;2023-03-14T09:04:15;0.83;;;0.83;;
19388;SDS011;9830;41.876;23.474;2023-03-14T09:06:41;1.03;;;0.97;;
19388;SDS011;9830;41.876;23.474;2023-03-14T09:09:07;0.97;;;0.50;;
19388;SDS011;9830;41.876;23.474;2023-03-14T09:11:33;0.30;;;0.30;;
19388;SDS011;9830;41.876;23.474;2023-03-14T09:13:59;2.27;;;1.30;;
19388;SDS011;9830;41.876;23.474;2023-03-14T09:16:25;0.40;;;0.40;;
19388;SDS011;9830;41.876;23.474;2023-03-14T09:18:51;2.97;;;1.15;;
19388;SDS011;9830;41.876;23.474;2023-03-14T09:21:22;0.30;;;0.30;;
19388;SDS011;9830;41.876;23.474;2023-03-14T09:23:48;1.98;;;0.68;;
19388;SDS011;9830;41.876;23.474;2023-03-14T09:26:14;0.57;;;0.57;;
19388;SDS011;9830;41.876;23.474;2023-03-14T09:28:39;1.40;;;0.85;;
19388;SDS011;9830;41.876;23.474;2023-03-14T09:31:08;0.50;;;0.50;;
19388;SDS011;9830;41.876;23.474;2023-03-14T09:33:35;0.50;;;0.45;;
19388;SDS011;9830;41.876;23.474;2023-03-14T09:36:01;0.65;;;0.65;;
19388;SDS011;9830;41.876;23.474;2023-03-14T09:38:28;0.43;;;0.43;;
19388;SDS011;9830;41.876;23.474;2023-03-14T09:40:54;0.68;;;0.57;;
19388;SDS011;9830;41.876;23.474;2023-03-14T09:43:22;2.43;;;1.17;;
19388;SDS011;9830;41.876;23.474;2023-03-14T09:45:50;3.30;;;1.50;;
19388;SDS011;9830;41.876;23.474;2023-03-14T09:48:20;0.80;;;0.80;;
19388;SDS011;9830;41.876;23.474;2023-03-14T09:50:50;0.70;;;0.70;;
19388;SDS011;9830;41.876;23.474;2023-03-14T09:53:23;0.85;;;0.47;;
19388;SDS011;9830;41.876;23.474;2023-03-14T09:55:56;1.20;;;1.13;;
19388;SDS011;9830;41.876;23.474;2023-03-14T09:58:23;0.53;;;0.53;;
19388;SDS011;9830;41.876;23.474;2023-03-14T10:00:50;0.50;;;0.50;;
19388;SDS011;9830;41.876;23.474;2023-03-14T10:03:29;0.50;;;0.50;;
19388;SDS011;9830;41.876;23.474;2023-03-14T10:05:58;0.70;;;0.70;;
19388;SDS011;9830;41.876;23.474;2023-03-14T10:08:24;0.50;;;0.50;;
19388;SDS011;9830;41.876;23.474;2023-03-14T10:10:49;0.83;;;0.83;;
19388;SDS011;9830;41.876;23.474;2023-03-14T10:15:53;1.27;;;1.17;;
19388;SDS011;9830;41.876;23.474;2023-03-14T10:18:21;1.40;;;1.30;;
19388;SDS011;9830;41.876;23.474;2023-03-14T10:20:49;0.90;;;0.90;;
19388;SDS011;9830;41.876;23.474;2023-03-14T10:23:43;0.43;;;0.43;;
19388;SDS011;9830;41.876;23.474;2023-03-14T10:26:14;0.80;;;0.80;;
19388;SDS011;9830;41.876;23.474;2023-03-14T10:28:46;0.60;;;0.60;;
19388;SDS011;9830;41.876;23.474;2023-03-14T10:31:16;0.10;;;0.10;;
19388;SDS011;9830;41.876;23.474;2023-03-14T10:33:42;0.20;;;0.20;;
19388;SDS011;9830;41.876;23.474;2023-03-14T10:36:30;2.03;;;0.70;;
19388;SDS011;9830;41.876;23.474;2023-03-14T10:38:58;0.23;;;0.23;;
19388;SDS011;9830;41.876;23.474;2023-03-14T10:41:40;0.83;;;0.83;;
19388;SDS011;9830;41.876;23.474;2023-03-14T10:44:13;0.10;;;0.10;;
19388;SDS011;9830;41.876;23.474;2023-03-14T10:46:42;0.07;;;0.07;;
19388;SDS011;9830;41.876;23.474;2023-03-14T10:49:12;0.40;;;0.40;;
19388;SDS011;9830;41.876;23.474;2023-03-14T10:51:50;0.47;;;0.47;;
19388;SDS011;9830;41.876;23.474;2023-03-14T10:54:20;0.27;;;0.27;;
19388;SDS011;9830;41.876;23.474;2023-03-14T10:56:58;1.43;;;0.80;;
19388;SDS011;9830;41.876;23.474;2023-03-14T10:59:34;0.70;;;0.60;;
19388;SDS011;9830;41.876;23.474;2023-03-14T11:04:58;0.17;;;0.17;;
19388;SDS011;9830;41.876;23.474;2023-03-14T11:07:39;0.40;;;0.40;;
19388;SDS011;9830;41.876;23.474;2023-03-14T11:13:27;0.53;;;0.53;;
19388;SDS011;9830;41.876;23.474;2023-03-14T11:27:03;0.60;;;0.60;;
19388;SDS011;9830;41.876;23.474;2023-03-14T11:29:53;0.70;;;0.70;;
19388;SDS011;9830;41.876;23.474;2023-03-14T11:34:54;2.23;;;0.73;;
19388;SDS011;9830;41.876;23.474;2023-03-14T11:40:16;0.40;;;0.40;;
19388;SDS011;9830;41.876;23.474;2023-03-14T11:42:49;0.60;;;0.60;;
19388;SDS011;9830;41.876;23.474;2023-03-14T11:45:33;1.00;;;0.67;;
19388;SDS011;9830;41.876;23.474;2023-03-14T11:48:07;0.53;;;0.40;;
19388;SDS011;9830;41.876;23.474;2023-03-14T11:50:36;0.33;;;0.33;;
19388;SDS011;9830;41.876;23.474;2023-03-14T11:53:04;4.23;;;1.30;;
19388;SDS011;9830;41.876;23.474;2023-03-14T11:55:38;0.60;;;0.47;;
19388;SDS011;9830;41.876;23.474;2023-03-14T12:00:41;0.73;;;0.60;;
19388;SDS011;9830;41.876;23.474;2023-03-14T12:03:17;0.33;;;0.33;;
19388;SDS011;9830;41.876;23.474;2023-03-14T12:06:20;0.20;;;0.20;;
19388;SDS011;9830;41.876;23.474;2023-03-14T12:08:57;0.73;;;0.60;;
19388;SDS011;9830;41.876;23.474;2023-03-14T12:11:33;0.33;;;0.33;;
19388;SDS011;9830;41.876;23.474;2023-03-14T12:14:03;0.90;;;0.90;;
19388;SDS011;9830;41.876;23.474;2023-03-14T12:16:43;4.37;;;1.87;;
19388;SDS011;9830;41.876;23.474;2023-03-14T12:25:05;1.30;;;1.20;;
19388;SDS011;9830;41.876;23.474;2023-03-14T12:30:23;0.60;;;0.60;;
19388;SDS011;9830;41.876;23.474;2023-03-14T12:38:13;0.60;;;0.60;;
19388;SDS011;9830;41.876;23.474;2023-03-14T12:41:03;1.13;;;1.03;;
19388;SDS011;9830;41.876;23.474;2023-03-14T12:43:39;0.70;;;0.70;;
19388;SDS011;9830;41.876;23.474;2023-03-14T12:48:42;0.47;;;0.47;;
19388;SDS011;9830;41.876;23.474;2023-03-14T12:51:19;0.57;;;0.57;;
19388;SDS011;9830;41.876;23.474;2023-03-14T12:54:14;1.77;;;0.83;;
19388;SDS011;9830;41.876;23.474;2023-03-14T12:59:52;0.63;;;0.63;;
19388;SDS011;9830;41.876;23.474;2023-03-14T13:02:29;0.97;;;0.97;;
19388;SDS011;9830;41.876;23.474;2023-03-14T13:10:22;0.50;;;0.50;;
19388;SDS011;9830;41.876;23.474;2023-03-14T13:13:02;0.20;;;0.20;;
19388;SDS011;9830;41.876;23.474;2023-03-14T13:15:40;0.17;;;0.17;;
19388;SDS011;9830;41.876;23.474;2023-03-14T13:18:24;1.70;;;1.43;;
19388;SDS011;9830;41.876;23.474;2023-03-14T13:21:01;0.90;;;0.90;;
19388;SDS011;9830;41.876;23.474;2023-03-14T13:23:35;0.63;;;0.63;;
19388;SDS011;9830;41.876;23.474;2023-03-14T13:26:02;0.87;;;0.87;;
19388;SDS011;9830;41.876;23.474;2023-03-14T13:28:31;0.57;;;0.57;;
19388;SDS011;9830;41.876;23.474;2023-03-14T13:31:02;0.67;;;0.67;;
19388;SDS011;9830;41.876;23.474;2023-03-14T13:33:29;1.33;;;0.90;;
19388;SDS011;9830;41.876;23.474;2023-03-14T13:35:56;0.50;;;0.50;;
19388;SDS011;9830;41.876;23.474;2023-03-14T13:38:29;0.30;;;0.30;;
19388;SDS011;9830;41.876;23.474;2023-03-14T13:40:57;0.90;;;0.80;;
19388;SDS011;9830;41.876;23.474;2023-03-14T13:43:28;0.50;;;0.43;;
19388;SDS011;9830;41.876;23.474;2023-03-14T13:48:32;1.10;;;0.93;;
19388;SDS011;9830;41.876;23.474;2023-03-14T13:51:04;0.73;;;0.73;;
19388;SDS011;9830;41.876;23.474;2023-03-14T13:53:32;1.00;;;0.97;;
19388;SDS011;9830;41.876;23.474;2023-03-14T13:56:08;1.10;;;0.90;;
19388;SDS011;9830;41.876;23.474;2023-03-14T13:58:35;0.77;;;0.77;;
19388;SDS011;9830;41.876;23.474;2023-03-14T14:01:16;0.57;;;0.50;;
19388;SDS011;9830;41.876;23.474;2023-03-14T14:03:42;1.30;;;0.93;;
19388;SDS011;9830;41.876;23.474;2023-03-14T14:06:21;1.03;;;0.60;;
19388;SDS011;9830;41.876;23.474;2023-03-14T14:08:54;0.27;;;0.27;;
19388;SDS011;9830;41.876;23.474;2023-03-14T14:11:22;0.27;;;0.27;;
19388;SDS011;9830;41.876;23.474;2023-03-14T14:14:06;0.20;;;0.20;;
19388;SDS011;9830;41.876;23.474;2023-03-14T14:16:40;1.07;;;1.07;;
19388;SDS011;9830;41.876;23.474;2023-03-14T14:19:07;2.00;;;1.27;;
19388;SDS011;9830;41.876;23.474;2023-03-14T14:21:33;3.37;;;1.40;;
19388;SDS011;9830;41.876;23.474;2023-03-14T14:23:59;0.63;;;0.63;;
19388;SDS011;9830;41.876;23.474;2023-03-14T14:26:25;0.10;;;0.10;;
19388;SDS011;9830;41.876;23.474;2023-03-14T14:29:02;0.53;;;0.50;;
19388;SDS011;9830;41.876;23.474;2023-03-14T14:31:29;0.90;;;0.67;;
19388;SDS011;9830;41.876;23.474;2023-03-14T14:34:02;5.33;;;1.83;;
19388;SDS011;9830;41.876;23.474;2023-03-14T14:36:32;0.57;;;0.57;;
19388;SDS011;9830;41.876;23.474;2023-03-14T14:39:16;12.43;;;2.77;;
19388;SDS011;9830;41.876;23.474;2023-03-14T14:41:44;0.80;;;0.70;;
19388;SDS011;9830;41.876;23.474;2023-03-14T14:44:13;0.40;;;0.40;;
19388;SDS011;9830;41.876;23.474;2023-03-14T14:46:45;0.00;;;0.00;;
19388;SDS011;9830;41.876;23.474;2023-03-14T14:49:15;0.73;;;0.47;;
19388;SDS011;9830;41.876;23.474;2023-03-14T14:51:45;0.70;;;0.40;;
19388;SDS011;9830;41.876;23.474;2023-03-14T14:54:18;0.27;;;0.27;;
19388;SDS011;9830;41.876;23.474;2023-03-14T14:56:46;0.27;;;0.27;;
19388;SDS011;9830;41.876;23.474;2023-03-14T14:59:26;0.10;;;0.10;;
19388;SDS011;9830;41.876;23.474;2023-03-14T15:02:03;0.10;;;0.10;;
19388;SDS011;9830;41.876;23.474;2023-03-14T15:04:30;0.60;;;0.60;;
19388;SDS011;9830;41.876;23.474;2023-03-14T15:06:56;1.60;;;0.87;;
19388;SDS011;9830;41.876;23.474;2023-03-14T15:09:22;1.10;;;1.00;;
19388;SDS011;9830;41.876;23.474;2023-03-14T15:11:49;0.00;;;0.00;;
19388;SDS011;9830;41.876;23.474;2023-03-14T15:14:15;4.57;;;1.63;;
19388;SDS011;9830;41.876;23.474;2023-03-14T15:16:41;0.37;;;0.37;;
19388;SDS011;9830;41.876;23.474;2023-03-14T15:19:12;0.07;;;0.07;;
19388;SDS011;9830;41.876;23.474;2023-03-14T15:21:45;0.50;;;0.47;;
19388;SDS011;9830;41.876;23.474;2023-03-14T15:24:10;10.03;;;1.63;;
19388;SDS011;9830;41.876;23.474;2023-03-14T15:26:36;0.97;;;0.53;;
19388;SDS011;9830;41.876;23.474;2023-03-14T15:29:02;0.20;;;0.20;;
19388;SDS011;9830;41.876;23.474;2023-03-14T15:31:28;2.00;;;1.00;;
19388;SDS011;9830;41.876;23.474;2023-03-14T15:33:53;0.47;;;0.47;;
19388;SDS011;9830;41.876;23.474;2023-03-14T15:38:50;0.50;;;0.50;;
19388;SDS011;9830;41.876;23.474;2023-03-14T15:41:16;0.27;;;0.27;;
19388;SDS011;9830;41.876;23.474;2023-03-14T15:43:42;0.20;;;0.20;;
19388;SDS011;9830;41.876;23.474;2023-03-14T15:46:09;3.93;;;0.30;;
19388;SDS011;9830;41.876;23.474;2023-03-14T15:48:35;0.90;;;0.87;;
19388;SDS011;9830;41.876;23.474;2023-03-14T15:51:01;0.63;;;0.63;;
19388;SDS011;9830;41.876;23.474;2023-03-14T15:53:26;0.50;;;0.50;;
19388;SDS011;9830;41.876;23.474;2023-03-14T15:55:52;0.40;;;0.40;;
19388;SDS011;9830;41.876;23.474;2023-03-14T15:58:18;7.13;;;1.80;;
19388;SDS011;9830;41.876;23.474;2023-03-14T16:00:45;0.20;;;0.20;;
19388;SDS011;9830;41.876;23.474;2023-03-14T16:03:11;0.40;;;0.40;;
19388;SDS011;9830;41.876;23.474;2023-03-14T16:05:37;1.70;;;0.83;;
19388;SDS011;9830;41.876;23.474;2023-03-14T16:08:04;0.43;;;0.43;;
19388;SDS011;9830;41.876;23.474;2023-03-14T16:10:30;0.87;;;0.87;;
19388;SDS011;9830;41.876;23.474;2023-03-14T16:12:56;1.73;;;1.10;;